sensor_id;sensor_type;location;lat;lon;timestamp;temperature;humidity
26081;DHT22;13991;51.174;4.438;2023-06-22T00:02:17;22.70;99.90
26081;DHT22;13991;51.174;4.438;2023-06-22T00:04:43;22.60;99.90
26081;DHT22;13991;51.174;4.438;2023-06-22T00:07:09;22.70;99.90
26081;DHT22;13991;51.174;4.438;2023-06-22T00:09:35;22.70;99.90
26081;DHT22;13991;51.174;4.438;2023-06-22T00:12:01;22.70;99.90
26081;DHT22;13991;51.174;4.438;2023-06-22T00:14:27;22.60;99.90
26081;DHT22;13991;51.174;4.438;2023-06-22T00:16:53;22.70;99.90
26081;DHT22;13991;51.174;4.438;2023-06-22T00:19:24;22.60;99.90
26081;DHT22;13991;51.174;4.438;2023-06-22T00:21:51;22.60;99.90
26081;DHT22;13991;51.174;4.438;2023-06-22T00:24:20;22.60;99.90
26081;DHT22;13991;51.174;4.438;2023-06-22T00:26:47;22.70;99.90
26081;DHT22;13991;51.174;4.438;2023-06-22T00:29:13;22.70;99.90
26081;DHT22;13991;51.174;4.438;2023-06-22T00:31:39;22.70;99.90
26081;DHT22;13991;51.174;4.438;2023-06-22T00:34:04;22.60;99.90
26081;DHT22;13991;51.174;4.438;2023-06-22T00:36:32;22.60;99.90
26081;DHT22;13991;51.174;4.438;2023-06-22T00:38:57;22.60;99.90
26081;DHT22;13991;51.174;4.438;2023-06-22T00:41:23;22.60;99.90
26081;DHT22;13991;51.174;4.438;2023-06-22T00:43:50;22.40;99.90
26081;DHT22;13991;51.174;4.438;2023-06-22T00:46:15;22.40;99.90
26081;DHT22;13991;51.174;4.438;2023-06-22T00:48:41;22.30;99.90
26081;DHT22;13991;51.174;4.438;2023-06-22T00:51:10;22.40;99.90
26081;DHT22;13991;51.174;4.438;2023-06-22T00:53:35;22.40;99.90
26081;DHT22;13991;51.174;4.438;2023-06-22T00:56:03;22.40;99.90
26081;DHT22;13991;51.174;4.438;2023-06-22T00:58:29;22.40;99.90
26081;DHT22;13991;51.174;4.438;2023-06-22T01:00:55;22.40;99.90
26081;DHT22;13991;51.174;4.438;2023-06-22T01:03:22;22.20;99.90
26081;DHT22;13991;51.174;4.438;2023-06-22T01:05:48;22.30;99.90
26081;DHT22;13991;51.174;4.438;2023-06-22T01:11:16;22.40;99.90
26081;DHT22;13991;51.174;4.438;2023-06-22T01:14:12;22.30;99.90
26081;DHT22;13991;51.174;4.438;2023-06-22T01:16:41;22.30;99.90
26081;DHT22;13991;51.174;4.438;2023-06-22T01:22:03;22.30;99.90
26081;DHT22;13991;51.174;4.438;2023-06-22T01:24:39;22.30;99.90
26081;DHT22;13991;51.174;4.438;2023-06-22T01:29:40;22.20;99.90
26081;DHT22;13991;51.174;4.438;2023-06-22T01:32:09;22.20;99.90
26081;DHT22;13991;51.174;4.438;2023-06-22T01:34:38;22.20;99.90
26081;DHT22;13991;51.174;4.438;2023-06-22T01:37:06;22.10;99.90
26081;DHT22;13991;51.174;4.438;2023-06-22T01:39:32;22.00;99.90
26081;DHT22;13991;51.174;4.438;2023-06-22T01:41:58;22.00;99.90
26081;DHT22;13991;51.174;4.438;2023-06-22T01:44:25;22.00;99.90
26081;DHT22;13991;51.174;4.438;2023-06-22T01:46:52;22.10;99.90
26081;DHT22;13991;51.174;4.438;2023-06-22T01:49:18;22.10;99.90
26081;DHT22;13991;51.174;4.438;2023-06-22T01:51:44;22.10;99.90
26081;DHT22;13991;51.174;4.438;2023-06-22T01:54:09;22.00;99.90
26081;DHT22;13991;51.174;4.438;2023-06-22T01:56:35;22.10;99.90
26081;DHT22;13991;51.174;4.438;2023-06-22T01:59:14;22.20;99.90
26081;DHT22;13991;51.174;4.438;2023-06-22T02:02:02;22.20;99.90
26081;DHT22;13991;51.174;4.438;2023-06-22T02:04:57;22.20;99.90
26081;DHT22;13991;51.174;4.438;2023-06-22T02:07:29;22.20;99.90
26081;DHT22;13991;51.174;4.438;2023-06-22T02:09:58;22.10;99.90
26081;DHT22;13991;51.174;4.438;2023-06-22T02:12:25;22.10;99.90
26081;DHT22;13991;51.174;4.438;2023-06-22T02:14:53;22.10;99.90
26081;DHT22;13991;51.174;4.438;2023-06-22T02:17:19;22.00;99.90
26081;DHT22;13991;51.174;4.438;2023-06-22T02:19:45;22.10;99.90
26081;DHT22;13991;51.174;4.438;2023-06-22T02:22:11;22.10;99.90
26081;DHT22;13991;51.174;4.438;2023-06-22T02:24:37;22.10;99.90
26081;DHT22;13991;51.174;4.438;2023-06-22T02:27:03;22.00;99.90
26081;DHT22;13991;51.174;4.438;2023-06-22T02:29:31;22.00;99.90
26081;DHT22;13991;51.174;4.438;2023-06-22T02:31:57;21.90;99.90
26081;DHT22;13991;51.174;4.438;2023-06-22T02:34:22;21.90;99.90
26081;DHT22;13991;51.174;4.438;2023-06-22T02:36:49;21.90;99.90
26081;DHT22;13991;51.174;4.438;2023-06-22T02:39:20;21.90;99.90
26081;DHT22;13991;51.174;4.438;2023-06-22T02:41:47;21.80;99.90
26081;DHT22;13991;51.174;4.438;2023-06-22T02:44:13;21.80;99.90
26081;DHT22;13991;51.174;4.438;2023-06-22T02:46:39;21.80;99.90
26081;DHT22;13991;51.174;4.438;2023-06-22T02:49:05;21.70;99.90
26081;DHT22;13991;51.174;4.438;2023-06-22T02:51:33;21.70;99.90
26081;DHT22;13991;51.174;4.438;2023-06-22T02:54:02;21.80;99.90
26081;DHT22;13991;51.174;4.438;2023-06-22T02:56:28;21.70;99.90
26081;DHT22;13991;51.174;4.438;2023-06-22T02:58:56;21.70;99.90
26081;DHT22;13991;51.174;4.438;2023-06-22T03:01:28;21.70;99.90
26081;DHT22;13991;51.174;4.438;2023-06-22T03:03:56;21.60;99.90
26081;DHT22;13991;51.174;4.438;2023-06-22T03:06:22;21.60;99.90
26081;DHT22;13991;51.174;4.438;2023-06-22T03:08:51;21.60;99.90
26081;DHT22;13991;51.174;4.438;2023-06-22T03:11:17;21.50;99.90
26081;DHT22;13991;51.174;4.438;2023-06-22T03:13:43;21.50;99.90
26081;DHT22;13991;51.174;4.438;2023-06-22T03:16:09;21.50;99.90
26081;DHT22;13991;51.174;4.438;2023-06-22T03:18:34;21.70;99.90
26081;DHT22;13991;51.174;4.438;2023-06-22T03:21:00;21.70;99.90
26081;DHT22;13991;51.174;4.438;2023-06-22T03:23:27;21.50;99.90
26081;DHT22;13991;51.174;4.438;2023-06-22T03:25:53;21.50;99.90
26081;DHT22;13991;51.174;4.438;2023-06-22T03:28:21;21.50;99.90
26081;DHT22;13991;51.174;4.438;2023-06-22T03:30:47;21.40;99.90
26081;DHT22;13991;51.174;4.438;2023-06-22T03:33:12;21.40;99.90
26081;DHT22;13991;51.174;4.438;2023-06-22T03:35:38;21.50;99.90
26081;DHT22;13991;51.174;4.438;2023-06-22T03:38:04;21.40;99.90
26081;DHT22;13991;51.174;4.438;2023-06-22T03:40:29;21.40;99.90
26081;DHT22;13991;51.174;4.438;2023-06-22T03:42:55;21.40;99.90
26081;DHT22;13991;51.174;4.438;2023-06-22T03:45:21;21.50;99.90
26081;DHT22;13991;51.174;4.438;2023-06-22T03:47:47;21.40;99.90
26081;DHT22;13991;51.174;4.438;2023-06-22T03:50:13;21.40;99.90
26081;DHT22;13991;51.174;4.438;2023-06-22T03:52:40;21.40;99.90
26081;DHT22;13991;51.174;4.438;2023-06-22T03:55:07;21.40;99.90
26081;DHT22;13991;51.174;4.438;2023-06-22T03:57:33;21.40;99.90
26081;DHT22;13991;51.174;4.438;2023-06-22T03:59:59;21.40;99.90
26081;DHT22;13991;51.174;4.438;2023-06-22T04:02:25;21.40;99.90
26081;DHT22;13991;51.174;4.438;2023-06-22T04:04:51;21.30;99.90
26081;DHT22;13991;51.174;4.438;2023-06-22T04:07:16;21.40;99.90
26081;DHT22;13991;51.174;4.438;2023-06-22T04:09:43;21.30;99.90
26081;DHT22;13991;51.174;4.438;2023-06-22T04:12:09;21.40;99.90
26081;DHT22;13991;51.174;4.438;2023-06-22T04:14:35;21.40;99.90
26081;DHT22;13991;51.174;4.438;2023-06-22T04:17:01;21.30;99.90
26081;DHT22;13991;51.174;4.438;2023-06-22T04:19:27;21.30;99.90
26081;DHT22;13991;51.174;4.438;2023-06-22T04:21:52;21.10;99.90
26081;DHT22;13991;51.174;4.438;2023-06-22T04:24:18;21.20;99.90
26081;DHT22;13991;51.174;4.438;2023-06-22T04:26:44;21.30;99.90
26081;DHT22;13991;51.174;4.438;2023-06-22T04:29:11;21.30;99.90
26081;DHT22;13991;51.174;4.438;2023-06-22T04:31:37;21.30;99.90
26081;DHT22;13991;51.174;4.438;2023-06-22T04:34:04;21.40;99.90
26081;DHT22;13991;51.174;4.438;2023-06-22T04:36:40;21.40;99.90
26081;DHT22;13991;51.174;4.438;2023-06-22T04:39:08;21.40;99.90
26081;DHT22;13991;51.174;4.438;2023-06-22T04:41:38;21.40;99.90
26081;DHT22;13991;51.174;4.438;2023-06-22T04:44:15;21.40;99.90
26081;DHT22;13991;51.174;4.438;2023-06-22T04:46:50;21.30;99.90
26081;DHT22;13991;51.174;4.438;2023-06-22T04:49:20;21.20;99.90
26081;DHT22;13991;51.174;4.438;2023-06-22T04:51:47;21.30;99.90
26081;DHT22;13991;51.174;4.438;2023-06-22T04:54:13;21.30;99.90
26081;DHT22;13991;51.174;4.438;2023-06-22T04:56:39;21.30;99.90
26081;DHT22;13991;51.174;4.438;2023-06-22T04:59:06;21.30;99.90
26081;DHT22;13991;51.174;4.438;2023-06-22T05:01:32;21.30;99.90
26081;DHT22;13991;51.174;4.438;2023-06-22T05:03:58;21.30;99.90
26081;DHT22;13991;51.174;4.438;2023-06-22T05:06:26;21.20;99.90
26081;DHT22;13991;51.174;4.438;2023-06-22T05:08:54;21.30;99.90
26081;DHT22;13991;51.174;4.438;2023-06-22T05:11:29;21.40;99.90
26081;DHT22;13991;51.174;4.438;2023-06-22T05:13:56;21.50;99.90
26081;DHT22;13991;51.174;4.438;2023-06-22T05:16:22;21.60;99.90
26081;DHT22;13991;51.174;4.438;2023-06-22T05:18:55;21.80;99.90
26081;DHT22;13991;51.174;4.438;2023-06-22T05:21:26;21.90;99.90
26081;DHT22;13991;51.174;4.438;2023-06-22T05:23:55;21.90;99.90
26081;DHT22;13991;51.174;4.438;2023-06-22T05:26:26;22.00;99.90
26081;DHT22;13991;51.174;4.438;2023-06-22T05:28:52;22.10;99.90
26081;DHT22;13991;51.174;4.438;2023-06-22T05:31:19;22.20;99.90
26081;DHT22;13991;51.174;4.438;2023-06-22T05:33:48;22.20;99.90
26081;DHT22;13991;51.174;4.438;2023-06-22T05:36:14;22.10;99.90
26081;DHT22;13991;51.174;4.438;2023-06-22T05:38:41;22.20;99.90
26081;DHT22;13991;51.174;4.438;2023-06-22T05:41:07;22.20;99.90
26081;DHT22;13991;51.174;4.438;2023-06-22T05:43:33;22.20;99.90
26081;DHT22;13991;51.174;4.438;2023-06-22T05:46:01;22.20;99.90
26081;DHT22;13991;51.174;4.438;2023-06-22T05:48:26;22.20;99.90
26081;DHT22;13991;51.174;4.438;2023-06-22T05:50:53;22.30;99.90
26081;DHT22;13991;51.174;4.438;2023-06-22T05:53:19;22.40;99.90
26081;DHT22;13991;51.174;4.438;2023-06-22T05:55:47;22.30;99.90
26081;DHT22;13991;51.174;4.438;2023-06-22T05:58:13;22.40;99.90
26081;DHT22;13991;51.174;4.438;2023-06-22T06:00:39;22.50;99.90
26081;DHT22;13991;51.174;4.438;2023-06-22T06:03:05;22.50;99.90
26081;DHT22;13991;51.174;4.438;2023-06-22T06:05:31;22.50;99.90
26081;DHT22;13991;51.174;4.438;2023-06-22T06:07:58;22.50;99.90
26081;DHT22;13991;51.174;4.438;2023-06-22T06:10:24;22.60;99.90
26081;DHT22;13991;51.174;4.438;2023-06-22T06:12:50;22.70;99.90
26081;DHT22;13991;51.174;4.438;2023-06-22T06:15:16;22.70;99.90
26081;DHT22;13991;51.174;4.438;2023-06-22T06:17:50;22.70;99.90
26081;DHT22;13991;51.174;4.438;2023-06-22T06:20:18;22.70;99.90
26081;DHT22;13991;51.174;4.438;2023-06-22T06:22:44;22.70;99.90
26081;DHT22;13991;51.174;4.438;2023-06-22T06:25:10;22.70;99.90
26081;DHT22;13991;51.174;4.438;2023-06-22T06:27:44;22.70;99.90
26081;DHT22;13991;51.174;4.438;2023-06-22T06:30:11;22.80;99.90
26081;DHT22;13991;51.174;4.438;2023-06-22T06:32:37;22.80;99.90
26081;DHT22;13991;51.174;4.438;2023-06-22T06:35:05;22.80;99.90
26081;DHT22;13991;51.174;4.438;2023-06-22T06:37:31;22.90;99.90
26081;DHT22;13991;51.174;4.438;2023-06-22T06:39:57;22.90;99.90
26081;DHT22;13991;51.174;4.438;2023-06-22T06:42:23;22.90;99.90
26081;DHT22;13991;51.174;4.438;2023-06-22T06:44:49;22.90;99.90
26081;DHT22;13991;51.174;4.438;2023-06-22T06:47:15;22.90;99.90
26081;DHT22;13991;51.174;4.438;2023-06-22T06:53:04;22.90;99.90
26081;DHT22;13991;51.174;4.438;2023-06-22T06:55:31;22.90;99.90
26081;DHT22;13991;51.174;4.438;2023-06-22T06:57:58;22.90;99.90
26081;DHT22;13991;51.174;4.438;2023-06-22T07:00:25;22.90;99.90
26081;DHT22;13991;51.174;4.438;2023-06-22T07:02:52;22.90;99.90
26081;DHT22;13991;51.174;4.438;2023-06-22T07:05:18;22.90;99.90
26081;DHT22;13991;51.174;4.438;2023-06-22T07:07:44;22.80;99.90
26081;DHT22;13991;51.174;4.438;2023-06-22T07:10:10;22.80;99.90
26081;DHT22;13991;51.174;4.438;2023-06-22T07:12:36;22.80;99.90
26081;DHT22;13991;51.174;4.438;2023-06-22T07:15:06;22.90;99.90
26081;DHT22;13991;51.174;4.438;2023-06-22T07:17:38;22.90;99.90
26081;DHT22;13991;51.174;4.438;2023-06-22T07:20:07;23.00;99.90
26081;DHT22;13991;51.174;4.438;2023-06-22T07:22:37;22.90;99.90
26081;DHT22;13991;51.174;4.438;2023-06-22T07:25:04;22.90;99.90
26081;DHT22;13991;51.174;4.438;2023-06-22T07:27:42;22.90;99.90
26081;DHT22;13991;51.174;4.438;2023-06-22T07:30:11;23.00;99.90
26081;DHT22;13991;51.174;4.438;2023-06-22T07:32:41;23.00;99.90
26081;DHT22;13991;51.174;4.438;2023-06-22T07:35:07;23.00;99.90
26081;DHT22;13991;51.174;4.438;2023-06-22T07:37:33;23.00;99.90
26081;DHT22;13991;51.174;4.438;2023-06-22T07:40:04;23.00;99.90
26081;DHT22;13991;51.174;4.438;2023-06-22T07:42:31;23.00;99.90
26081;DHT22;13991;51.174;4.438;2023-06-22T07:44:58;22.90;99.90
26081;DHT22;13991;51.174;4.438;2023-06-22T07:47:24;23.00;99.90
26081;DHT22;13991;51.174;4.438;2023-06-22T07:49:55;23.00;99.90
26081;DHT22;13991;51.174;4.438;2023-06-22T07:52:24;23.00;99.90
26081;DHT22;13991;51.174;4.438;2023-06-22T07:54:51;23.00;99.90
26081;DHT22;13991;51.174;4.438;2023-06-22T07:57:16;23.00;99.90
26081;DHT22;13991;51.174;4.438;2023-06-22T07:59:42;23.00;99.90
26081;DHT22;13991;51.174;4.438;2023-06-22T08:02:08;23.00;99.90
26081;DHT22;13991;51.174;4.438;2023-06-22T08:04:34;23.10;99.90
26081;DHT22;13991;51.174;4.438;2023-06-22T08:07:01;23.10;99.90
26081;DHT22;13991;51.174;4.438;2023-06-22T08:09:31;23.10;99.90
26081;DHT22;13991;51.174;4.438;2023-06-22T08:11:57;23.10;99.90
26081;DHT22;13991;51.174;4.438;2023-06-22T08:14:26;23.10;99.90
26081;DHT22;13991;51.174;4.438;2023-06-22T08:16:53;23.10;99.90
26081;DHT22;13991;51.174;4.438;2023-06-22T08:19:19;23.00;99.90
26081;DHT22;13991;51.174;4.438;2023-06-22T08:21:44;23.10;99.90
26081;DHT22;13991;51.174;4.438;2023-06-22T08:24:10;23.10;99.90
26081;DHT22;13991;51.174;4.438;2023-06-22T08:26:36;23.10;99.90
26081;DHT22;13991;51.174;4.438;2023-06-22T08:29:03;23.10;99.90
26081;DHT22;13991;51.174;4.438;2023-06-22T08:31:30;23.10;99.90
26081;DHT22;13991;51.174;4.438;2023-06-22T08:33:56;23.20;99.90
26081;DHT22;13991;51.174;4.438;2023-06-22T08:36:21;23.20;99.90
26081;DHT22;13991;51.174;4.438;2023-06-22T08:38:47;23.20;99.90
26081;DHT22;13991;51.174;4.438;2023-06-22T08:41:17;23.20;99.90
26081;DHT22;13991;51.174;4.438;2023-06-22T08:43:43;23.30;99.90
26081;DHT22;13991;51.174;4.438;2023-06-22T08:46:12;23.30;99.90
26081;DHT22;13991;51.174;4.438;2023-06-22T08:48:38;23.30;99.90
26081;DHT22;13991;51.174;4.438;2023-06-22T08:51:04;23.40;99.90
26081;DHT22;13991;51.174;4.438;2023-06-22T08:53:30;23.30;99.90
26081;DHT22;13991;51.174;4.438;2023-06-22T08:55:55;23.30;99.90
26081;DHT22;13991;51.174;4.438;2023-06-22T08:58:21;23.20;99.90
26081;DHT22;13991;51.174;4.438;2023-06-22T09:00:48;23.30;99.90
26081;DHT22;13991;51.174;4.438;2023-06-22T09:03:13;23.30;99.90
26081;DHT22;13991;51.174;4.438;2023-06-22T09:05:39;23.30;99.90
26081;DHT22;13991;51.174;4.438;2023-06-22T09:08:05;23.40;99.90
26081;DHT22;13991;51.174;4.438;2023-06-22T09:10:30;23.40;99.90
26081;DHT22;13991;51.174;4.438;2023-06-22T09:12:57;23.40;99.90
26081;DHT22;13991;51.174;4.438;2023-06-22T09:15:22;23.40;99.90
26081;DHT22;13991;51.174;4.438;2023-06-22T09:17:48;23.40;99.90
26081;DHT22;13991;51.174;4.438;2023-06-22T09:20:14;23.40;99.90
26081;DHT22;13991;51.174;4.438;2023-06-22T09:22:41;23.40;99.90
26081;DHT22;13991;51.174;4.438;2023-06-22T09:25:07;23.50;99.90
26081;DHT22;13991;51.174;4.438;2023-06-22T09:27:33;23.50;99.90
26081;DHT22;13991;51.174;4.438;2023-06-22T09:29:58;23.30;99.90
26081;DHT22;13991;51.174;4.438;2023-06-22T09:32:25;23.30;99.90
26081;DHT22;13991;51.174;4.438;2023-06-22T09:34:51;23.30;99.90
26081;DHT22;13991;51.174;4.438;2023-06-22T09:37:17;23.30;99.90
26081;DHT22;13991;51.174;4.438;2023-06-22T09:39:43;23.40;99.90
26081;DHT22;13991;51.174;4.438;2023-06-22T09:42:08;23.30;99.90
26081;DHT22;13991;51.174;4.438;2023-06-22T09:44:34;23.20;99.90
26081;DHT22;13991;51.174;4.438;2023-06-22T09:47:00;23.20;99.90
26081;DHT22;13991;51.174;4.438;2023-06-22T09:49:26;23.20;99.90
26081;DHT22;13991;51.174;4.438;2023-06-22T09:51:51;23.00;99.90
26081;DHT22;13991;51.174;4.438;2023-06-22T09:54:17;23.00;99.90
26081;DHT22;13991;51.174;4.438;2023-06-22T09:56:43;23.10;99.90
26081;DHT22;13991;51.174;4.438;2023-06-22T09:59:09;23.20;99.90
26081;DHT22;13991;51.174;4.438;2023-06-22T10:01:35;23.10;99.90
26081;DHT22;13991;51.174;4.438;2023-06-22T10:04:02;23.20;99.90
26081;DHT22;13991;51.174;4.438;2023-06-22T10:06:28;23.30;99.90
26081;DHT22;13991;51.174;4.438;2023-06-22T10:08:53;23.30;99.90
26081;DHT22;13991;51.174;4.438;2023-06-22T10:11:19;23.30;99.90
26081;DHT22;13991;51.174;4.438;2023-06-22T10:13:45;23.30;99.90
26081;DHT22;13991;51.174;4.438;2023-06-22T10:16:10;23.30;99.90
26081;DHT22;13991;51.174;4.438;2023-06-22T10:18:36;23.20;99.90
26081;DHT22;13991;51.174;4.438;2023-06-22T10:21:02;23.20;99.90
26081;DHT22;13991;51.174;4.438;2023-06-22T10:23:27;23.00;99.90
26081;DHT22;13991;51.174;4.438;2023-06-22T10:25:53;23.00;99.90
26081;DHT22;13991;51.174;4.438;2023-06-22T10:28:19;23.10;99.90
26081;DHT22;13991;51.174;4.438;2023-06-22T10:30:45;23.00;99.90
26081;DHT22;13991;51.174;4.438;2023-06-22T10:33:11;23.00;99.90
26081;DHT22;13991;51.174;4.438;2023-06-22T10:35:38;22.90;99.90
26081;DHT22;13991;51.174;4.438;2023-06-22T10:38:04;22.80;99.90
26081;DHT22;13991;51.174;4.438;2023-06-22T10:40:30;22.90;99.90
26081;DHT22;13991;51.174;4.438;2023-06-22T10:42:56;22.80;99.90
26081;DHT22;13991;51.174;4.438;2023-06-22T10:45:21;22.70;99.90
26081;DHT22;13991;51.174;4.438;2023-06-22T10:47:47;22.70;99.90
26081;DHT22;13991;51.174;4.438;2023-06-22T10:50:13;22.70;99.90
26081;DHT22;13991;51.174;4.438;2023-06-22T10:52:39;22.60;99.90
26081;DHT22;13991;51.174;4.438;2023-06-22T10:55:05;22.60;99.90
26081;DHT22;13991;51.174;4.438;2023-06-22T10:57:31;22.60;99.90
26081;DHT22;13991;51.174;4.438;2023-06-22T10:59:57;22.50;99.90
26081;DHT22;13991;51.174;4.438;2023-06-22T11:02:23;22.30;99.90
26081;DHT22;13991;51.174;4.438;2023-06-22T11:04:50;22.20;99.90
26081;DHT22;13991;51.174;4.438;2023-06-22T11:07:15;22.00;99.90
26081;DHT22;13991;51.174;4.438;2023-06-22T11:09:43;22.20;99.90
26081;DHT22;13991;51.174;4.438;2023-06-22T11:12:09;22.20;99.90
26081;DHT22;13991;51.174;4.438;2023-06-22T11:14:34;22.10;99.90
26081;DHT22;13991;51.174;4.438;2023-06-22T11:17:00;22.00;99.90
26081;DHT22;13991;51.174;4.438;2023-06-22T11:19:26;22.00;99.90
26081;DHT22;13991;51.174;4.438;2023-06-22T11:21:51;22.10;99.90
26081;DHT22;13991;51.174;4.438;2023-06-22T11:24:17;22.20;99.90
26081;DHT22;13991;51.174;4.438;2023-06-22T11:26:43;22.20;99.90
26081;DHT22;13991;51.174;4.438;2023-06-22T11:29:09;22.00;99.90
26081;DHT22;13991;51.174;4.438;2023-06-22T11:31:35;22.10;99.90
26081;DHT22;13991;51.174;4.438;2023-06-22T11:34:01;22.00;99.90
26081;DHT22;13991;51.174;4.438;2023-06-22T11:36:27;21.90;99.90
26081;DHT22;13991;51.174;4.438;2023-06-22T11:38:54;21.90;99.90
26081;DHT22;13991;51.174;4.438;2023-06-22T11:41:20;21.90;99.90
26081;DHT22;13991;51.174;4.438;2023-06-22T11:43:45;21.60;99.90
26081;DHT22;13991;51.174;4.438;2023-06-22T11:46:11;21.50;99.90
26081;DHT22;13991;51.174;4.438;2023-06-22T11:48:37;21.60;99.90
26081;DHT22;13991;51.174;4.438;2023-06-22T11:51:03;21.50;99.90
26081;DHT22;13991;51.174;4.438;2023-06-22T11:53:29;21.50;99.90
26081;DHT22;13991;51.174;4.438;2023-06-22T11:55:55;21.50;99.90
26081;DHT22;13991;51.174;4.438;2023-06-22T11:58:22;21.60;99.90
26081;DHT22;13991;51.174;4.438;2023-06-22T12:00:48;21.60;99.90
26081;DHT22;13991;51.174;4.438;2023-06-22T12:03:14;21.60;99.90
26081;DHT22;13991;51.174;4.438;2023-06-22T12:05:40;21.70;99.90
26081;DHT22;13991;51.174;4.438;2023-06-22T12:08:06;21.60;99.90
26081;DHT22;13991;51.174;4.438;2023-06-22T12:10:32;21.50;99.90
26081;DHT22;13991;51.174;4.438;2023-06-22T12:12:57;21.40;99.90
26081;DHT22;13991;51.174;4.438;2023-06-22T12:15:26;21.40;99.90
26081;DHT22;13991;51.174;4.438;2023-06-22T12:17:52;21.40;99.90
26081;DHT22;13991;51.174;4.438;2023-06-22T12:20:17;21.40;99.90
26081;DHT22;13991;51.174;4.438;2023-06-22T12:22:44;21.30;99.90
26081;DHT22;13991;51.174;4.438;2023-06-22T12:25:10;21.30;99.90
26081;DHT22;13991;51.174;4.438;2023-06-22T12:27:36;21.20;99.90
26081;DHT22;13991;51.174;4.438;2023-06-22T12:30:03;21.30;99.90
26081;DHT22;13991;51.174;4.438;2023-06-22T12:32:29;21.30;99.90
26081;DHT22;13991;51.174;4.438;2023-06-22T12:34:55;21.50;99.90
26081;DHT22;13991;51.174;4.438;2023-06-22T12:37:21;21.50;99.90
26081;DHT22;13991;51.174;4.438;2023-06-22T12:39:46;21.60;99.90
26081;DHT22;13991;51.174;4.438;2023-06-22T13:00:54;21.10;99.90
26081;DHT22;13991;51.174;4.438;2023-06-22T13:06:03;20.80;99.90
26081;DHT22;13991;51.174;4.438;2023-06-22T13:08:46;20.80;99.90
26081;DHT22;13991;51.174;4.438;2023-06-22T13:11:15;20.70;99.90
26081;DHT22;13991;51.174;4.438;2023-06-22T13:13:50;20.60;99.90
26081;DHT22;13991;51.174;4.438;2023-06-22T13:16:18;20.70;99.90
26081;DHT22;13991;51.174;4.438;2023-06-22T13:18:58;20.70;99.90
26081;DHT22;13991;51.174;4.438;2023-06-22T13:21:23;20.50;99.90
26081;DHT22;13991;51.174;4.438;2023-06-22T13:23:49;20.60;99.90
26081;DHT22;13991;51.174;4.438;2023-06-22T13:26:15;20.70;99.90
26081;DHT22;13991;51.174;4.438;2023-06-22T13:28:44;20.70;99.90
26081;DHT22;13991;51.174;4.438;2023-06-22T13:31:09;20.70;99.90
26081;DHT22;13991;51.174;4.438;2023-06-22T13:33:37;20.60;99.90
26081;DHT22;13991;51.174;4.438;2023-06-22T13:36:03;20.70;99.90
26081;DHT22;13991;51.174;4.438;2023-06-22T13:38:32;20.70;99.90
26081;DHT22;13991;51.174;4.438;2023-06-22T13:40:57;20.80;99.90
26081;DHT22;13991;51.174;4.438;2023-06-22T13:43:26;20.70;99.90
26081;DHT22;13991;51.174;4.438;2023-06-22T13:45:52;20.70;99.90
26081;DHT22;13991;51.174;4.438;2023-06-22T13:48:17;21.00;99.90
26081;DHT22;13991;51.174;4.438;2023-06-22T13:50:43;20.80;99.90
26081;DHT22;13991;51.174;4.438;2023-06-22T13:53:09;20.70;99.90
26081;DHT22;13991;51.174;4.438;2023-06-22T13:55:35;20.80;99.90
26081;DHT22;13991;51.174;4.438;2023-06-22T13:58:00;20.70;99.90
26081;DHT22;13991;51.174;4.438;2023-06-22T14:00:26;20.80;99.90
26081;DHT22;13991;51.174;4.438;2023-06-22T14:02:53;20.80;99.90
26081;DHT22;13991;51.174;4.438;2023-06-22T14:05:19;20.90;99.90
26081;DHT22;13991;51.174;4.438;2023-06-22T14:07:45;20.90;99.90
26081;DHT22;13991;51.174;4.438;2023-06-22T14:10:11;20.90;99.90
26081;DHT22;13991;51.174;4.438;2023-06-22T14:12:37;20.70;99.90
26081;DHT22;13991;51.174;4.438;2023-06-22T14:15:03;20.60;99.90
26081;DHT22;13991;51.174;4.438;2023-06-22T14:17:29;20.50;99.90
26081;DHT22;13991;51.174;4.438;2023-06-22T14:19:55;20.50;99.90
26081;DHT22;13991;51.174;4.438;2023-06-22T14:22:21;20.60;99.90
26081;DHT22;13991;51.174;4.438;2023-06-22T14:24:48;20.50;99.90
26081;DHT22;13991;51.174;4.438;2023-06-22T14:27:14;20.70;99.90
26081;DHT22;13991;51.174;4.438;2023-06-22T14:29:40;20.70;99.90
26081;DHT22;13991;51.174;4.438;2023-06-22T14:32:06;20.70;99.90
26081;DHT22;13991;51.174;4.438;2023-06-22T14:34:33;20.80;99.90
26081;DHT22;13991;51.174;4.438;2023-06-22T14:37:01;20.80;99.90
26081;DHT22;13991;51.174;4.438;2023-06-22T14:39:27;20.80;99.90
26081;DHT22;13991;51.174;4.438;2023-06-22T14:41:53;20.90;99.90
26081;DHT22;13991;51.174;4.438;2023-06-22T14:44:19;20.70;99.90
26081;DHT22;13991;51.174;4.438;2023-06-22T14:46:44;20.70;99.90
26081;DHT22;13991;51.174;4.438;2023-06-22T14:49:10;20.70;99.90
26081;DHT22;13991;51.174;4.438;2023-06-22T14:51:36;20.90;99.90
26081;DHT22;13991;51.174;4.438;2023-06-22T14:54:01;20.90;99.90
26081;DHT22;13991;51.174;4.438;2023-06-22T14:56:27;21.00;99.90
26081;DHT22;13991;51.174;4.438;2023-06-22T14:58:53;20.90;99.90
26081;DHT22;13991;51.174;4.438;2023-06-22T15:01:19;20.90;99.90
26081;DHT22;13991;51.174;4.438;2023-06-22T15:03:45;20.90;99.90
26081;DHT22;13991;51.174;4.438;2023-06-22T15:06:10;20.90;99.90
26081;DHT22;13991;51.174;4.438;2023-06-22T15:08:40;20.70;99.90
26081;DHT22;13991;51.174;4.438;2023-06-22T15:11:10;20.80;99.90
26081;DHT22;13991;51.174;4.438;2023-06-22T15:13:39;20.90;99.90
26081;DHT22;13991;51.174;4.438;2023-06-22T15:16:05;21.00;99.90
26081;DHT22;13991;51.174;4.438;2023-06-22T15:18:30;21.10;99.90
26081;DHT22;13991;51.174;4.438;2023-06-22T15:20:56;21.10;99.90
26081;DHT22;13991;51.174;4.438;2023-06-22T15:23:24;21.10;99.90
26081;DHT22;13991;51.174;4.438;2023-06-22T15:25:49;21.00;99.90
26081;DHT22;13991;51.174;4.438;2023-06-22T15:28:15;21.00;99.90
26081;DHT22;13991;51.174;4.438;2023-06-22T15:30:41;21.00;99.90
26081;DHT22;13991;51.174;4.438;2023-06-22T15:33:06;21.10;99.90
26081;DHT22;13991;51.174;4.438;2023-06-22T15:35:32;21.20;99.90
26081;DHT22;13991;51.174;4.438;2023-06-22T15:37:58;21.30;99.90
26081;DHT22;13991;51.174;4.438;2023-06-22T15:40:25;21.20;99.90
26081;DHT22;13991;51.174;4.438;2023-06-22T15:42:51;21.30;99.90
26081;DHT22;13991;51.174;4.438;2023-06-22T15:45:16;21.20;99.90
26081;DHT22;13991;51.174;4.438;2023-06-22T15:47:42;21.20;99.90
26081;DHT22;13991;51.174;4.438;2023-06-22T15:50:08;21.20;99.90
26081;DHT22;13991;51.174;4.438;2023-06-22T15:52:34;21.20;99.90
26081;DHT22;13991;51.174;4.438;2023-06-22T15:55:00;21.20;99.90
26081;DHT22;13991;51.174;4.438;2023-06-22T15:57:26;21.20;99.90
26081;DHT22;13991;51.174;4.438;2023-06-22T15:59:52;21.10;99.90
26081;DHT22;13991;51.174;4.438;2023-06-22T16:02:21;21.10;99.90